Palo Alto, CA

9:43 PM PDT on September 02, 2014 (GMT -0700)
Palo Alto Of Santa Clara County | Change Station
CLOSE
Current Station
Airport
Location: Palo Alto,
Elevation: 7 ft
Nearby Weather Stations

Elev 7 ft 37.46 °N, 122.12 °W | Updated 50 minutes ago

Partly Cloudy
Partly Cloudy
64 °F
Feels Like 64 °F
N
14
Wind Variable Wind from NNW

Today
High -- | Low -- °F
--% Chance of Precip.
Yesterday
High -- | Low -- °F
Precip. -- in
6:39 AM 7:35 PM
First Quarter, 58% visible
Pressure 29.79 in
Visibility 10.0 miles
Clouds Few 1000 ft
Dew Point 61 °F
Humidity 88%
Rainfall 0.00 in
Snow Depth Not available.
UV 0 out of 12
Pollen 7.30 out of 12
PM2.5 Good
Flu Activity Not available.
METAR KPAO 030353Z 34012KT 10SM FEW010 18/16 A2979

More Conditions Fewer Conditions

Pressure 29.79 in
Visibility 10.0 miles
Clouds Few 1000 ft
Dew Point 61 °F
Humidity 88%
Rainfall 0.00 in
Snow Depth Not available.
UV 0 out of 12
Pollen 7.30 out of 12
PM2.5 Good
Flu Activity Not available.
METAR KPAO 030353Z 34012KT 10SM FEW010 18/16 A2979

More Conditions Fewer Conditions

10-Day Weather Forecast

Almanac

Astronomy

Sep. 02, 2014 Rise Set
Actual Time 6:39 AM PDT 7:35 PM PDT
Civil Twilight 6:13 AM PDT 8:02 PM PDT
Nautical Twilight 5:41 AM PDT 8:33 PM PDT
Astronomical Twilight 5:08 AM PDT 9:06 PM PDT
Moon 2:20 PM PDT (9/2) No Moon Set
Length of Visible Light 13h 49m
Length of Day
12h 56m
Tomorrow will be 2m 19s shorter.
First Quarter, 58% of the Moon is Illuminated
Sep 3
First Quarter
Sep 8
Full
Sep 15
Last Quarter
Sep 24
New
Oct 1
First Quarter

Yesterday's Extremes

State Highs State Lows

Community

WunderPhotos

Upload Photos

1,749,875 photos uploaded!

Nearby

Air Quality

  Air Quality AQ Index Pollutant
Yesterday Moderate
PM2.5
Yesterday Good
OZONE
Current Good
PM2.5
Tuesday Good
OZONE
Wednesday Good
PM2.5
Thursday Good
OZONE
Friday Good
OZONE
Saturday Good
OZONE
Sunday Good
OZONE

Snow Depth

Station Depth Elevation
Blue Lakes 0 in 8000 ft
Forestdale Creek 0 in 8029 ft
Echo Peak 0 in 7800 ft
Leavitt Lake 0 in 9400 ft
Rubicon #2 0 in 7500 ft

Earthquake Activity

City Distance Mag. Time & Date
Cobb, California 100 miles 2.5 12:00 PM PDT
2014-09-02
Yountville, California 63 miles 2.6 1:15 PM PDT
2014-09-01
Gilroy, California 48 miles 3.4 9:10 AM PDT
2014-09-01
Green Valley, California 54 miles 2.5 6:37 AM PDT
2014-08-31
Minimum magnitude displayed is 2.5.

Coastal Water Temperatures

Place Temperature
No Stations Reporting

Nearby Weather Stations